Time;durP1;ratioP1;P1;durP2;ratioP2;P2;SDS_P1;SDS_P2;PMS_P1;PMS_P2;Temp;Humidity;BMP_temperature;BMP_pressure;BME280_temperature;BME280_humidity;BME280_pressure;Samples;Min_cycle;Max_cycle;Signal;HPM_P1;HPM_P2
2022/11/12 00:10:17;;;;;;;14.30;6.27;;;;;;;5.69;100.00;102620.31;20751450;28;20518;-72
2022/11/12 00:20:39;;;;;;;11.98;5.57;;;;;;;5.50;100.00;102618.91;20753794;28;20624;-71
2022/11/12 00:31:06;;;;;;;9.70;5.97;;;;;;;5.52;100.00;102621.44;20742123;28;20045;-72
2022/11/12 00:41:28;;;;;;;11.93;6.00;;;;;;;5.48;100.00;102631.00;20767336;28;20116;-71
2022/11/12 00:51:49;;;;;;;10.13;5.83;;;;;;;5.40;100.00;102630.25;20767530;28;20124;-72
2022/11/12 01:02:11;;;;;;;11.70;6.10;;;;;;;5.48;100.00;102627.53;20757775;28;20585;-72
2022/11/12 01:12:32;;;;;;;13.03;6.10;;;;;;;5.42;100.00;102631.06;20773832;28;20281;-72
2022/11/12 01:22:54;;;;;;;12.00;6.17;;;;;;;5.39;100.00;102620.78;20765735;28;20100;-72
2022/11/12 01:33:42;;;;;;;11.70;6.00;;;;;;;5.42;100.00;102614.72;20771652;28;20041;-76
2022/11/12 01:44:16;;;;;;;8.18;5.72;;;;;;;5.27;100.00;102610.63;20668330;28;20136;-63
2022/11/12 01:54:38;;;;;;;12.23;6.00;;;;;;;5.12;100.00;102620.34;20662081;28;20054;-63
2022/11/12 02:05:01;;;;;;;10.43;6.10;;;;;;;5.06;100.00;102620.41;20638921;28;20042;-64
2022/11/12 02:15:22;;;;;;;12.35;5.95;;;;;;;4.99;100.00;102617.03;20631634;28;20469;-65
2022/11/12 02:25:45;;;;;;;10.30;6.25;;;;;;;4.90;100.00;102599.09;20635294;28;20042;-62
2022/11/12 02:36:06;;;;;;;17.60;8.17;;;;;;;4.92;100.00;102620.59;20653281;28;20042;-65
2022/11/12 02:46:28;;;;;;;16.73;8.93;;;;;;;4.77;100.00;102630.25;20619201;28;20122;-64
2022/11/12 02:56:49;;;;;;;11.73;7.33;;;;;;;4.80;100.00;102612.97;20645933;28;20104;-65
2022/11/12 03:07:11;;;;;;;13.23;6.80;;;;;;;4.70;100.00;102614.84;20629472;28;20112;-65
2022/11/12 03:17:33;;;;;;;9.82;5.80;;;;;;;4.64;100.00;102614.94;20625031;28;20527;-65
2022/11/12 03:28:16;;;;;;;9.73;6.15;;;;;;;4.65;100.00;102626.97;20637881;28;20050;-65
2022/11/12 03:38:37;;;;;;;14.25;6.40;;;;;;;4.56;100.00;102629.66;20637879;28;20420;-65
2022/11/12 03:49:01;;;;;;;12.00;6.13;;;;;;;4.49;100.00;102615.13;20630532;28;20058;-65
2022/11/12 03:59:23;;;;;;;12.00;6.30;;;;;;;4.52;100.00;102621.09;20730075;28;20066;-65
2022/11/12 04:09:44;;;;;;;9.23;5.77;;;;;;;4.38;100.00;102619.53;20668924;28;20046;-64
2022/11/12 04:30:48;;;;;;;13.30;6.35;;;;;;;4.37;100.00;102615.22;20743592;28;20062;-65
2022/11/12 04:52:04;;;;;;;10.60;6.00;;;;;;;4.20;100.00;102623.16;20654975;28;20460;-63
2022/11/12 05:02:26;;;;;;;11.35;5.88;;;;;;;4.16;100.00;102625.78;20638253;28;20035;-62
2022/11/12 05:12:47;;;;;;;13.43;6.00;;;;;;;4.12;100.00;102629.25;20625903;28;20108;-63
2022/11/12 05:23:09;;;;;;;11.10;5.37;;;;;;;4.09;100.00;102637.88;20619879;28;20047;-63
2022/11/12 05:33:30;;;;;;;10.23;6.40;;;;;;;4.09;100.00;102631.84;20643723;28;20386;-63
2022/11/12 05:43:52;;;;;;;10.13;6.57;;;;;;;3.97;100.00;102619.06;20626014;28;20489;-64
2022/11/12 05:54:14;;;;;;;13.15;6.53;;;;;;;3.80;100.00;102637.28;20641899;28;20437;-64
2022/11/12 06:04:35;;;;;;;11.10;6.07;;;;;;;3.81;100.00;102622.66;20635843;28;20089;-64
2022/11/12 06:14:56;;;;;;;11.73;5.90;;;;;;;3.73;100.00;102619.31;20628891;28;20046;-64
2022/11/12 06:25:18;;;;;;;12.67;6.63;;;;;;;3.72;100.00;102642.50;20647451;28;20050;-64
2022/11/12 06:35:40;;;;;;;11.07;6.00;;;;;;;3.75;100.00;102642.47;20739565;28;20077;-64
2022/11/12 06:46:13;;;;;;;10.50;6.05;;;;;;;3.66;100.00;102627.94;20675610;28;20080;-63
2022/11/12 06:56:35;;;;;;;12.37;6.13;;;;;;;3.71;100.00;102631.34;20642830;28;20464;-64
2022/11/12 07:06:56;;;;;;;8.97;6.20;;;;;;;3.64;100.00;102660.59;20680390;28;20081;-64
2022/11/12 07:17:18;;;;;;;9.87;6.50;;;;;;;3.62;100.00;102662.38;20652117;28;20050;-62
2022/11/12 07:27:39;;;;;;;12.67;6.33;;;;;;;3.85;100.00;102671.66;20701681;28;20089;-61
2022/11/12 07:38:01;;;;;;;13.60;6.50;;;;;;;3.68;100.00;102667.47;20664826;22;20050;-73
2022/11/12 07:48:22;;;;;;;18.07;7.03;;;;;;;3.68;100.00;102670.03;20676477;28;20045;-74
2022/11/12 07:58:45;;;;;;;13.87;7.67;;;;;;;3.96;100.00;102674.13;20758174;28;20152;-74
2022/11/12 08:09:07;;;;;;;11.93;7.22;;;;;;;4.12;100.00;102686.03;20760369;28;20339;-74
2022/11/12 08:19:29;;;;;;;13.05;7.78;;;;;;;4.37;100.00;102693.53;20740155;28;20112;-73
2022/11/12 08:29:50;;;;;;;13.57;8.07;;;;;;;4.29;100.00;102686.72;20724832;28;20564;-73
2022/11/12 08:40:12;;;;;;;11.30;7.77;;;;;;;4.46;100.00;102715.81;20706838;28;20042;-73
2022/11/12 08:50:35;;;;;;;14.30;8.20;;;;;;;4.81;100.00;102723.19;20748994;28;20547;-72
2022/11/12 09:01:02;;;;;;;15.18;8.15;;;;;;;4.93;100.00;102717.91;20731337;28;20088;-74
2022/11/12 09:11:24;;;;;;;15.25;8.38;;;;;;;5.13;100.00;102735.75;20719260;28;20073;-75
2022/11/12 09:21:45;;;;;;;13.43;8.83;;;;;;;5.59;100.00;102735.13;20720052;28;20112;-75
2022/11/12 09:32:06;;;;;;;15.37;8.47;;;;;;;5.95;100.00;102732.06;20730092;28;20112;-76
2022/11/12 09:42:29;;;;;;;11.37;7.80;;;;;;;6.00;100.00;102741.47;20738212;28;20057;-75
2022/11/12 09:52:59;;;;;;;12.20;8.20;;;;;;;6.35;100.00;102738.31;20740291;28;20455;-72
2022/11/12 10:03:32;;;;;;;15.75;7.78;;;;;;;6.65;99.84;102737.78;20742324;28;20456;-73
2022/11/12 10:14:17;;;;;;;15.05;8.07;;;;;;;6.94;98.93;102732.03;20738879;28;20073;-72
2022/11/12 10:24:40;;;;;;;17.45;8.02;;;;;;;7.03;100.00;102721.47;20738078;28;20564;-75
2022/11/12 10:35:03;;;;;;;12.82;8.38;;;;;;;7.24;99.25;102728.81;20718673;28;20117;-73
2022/11/12 10:45:24;;;;;;;13.95;7.90;;;;;;;8.07;95.35;102713.09;20738563;28;20136;-74
2022/11/12 10:56:00;;;;;;;11.97;8.13;;;;;;;8.39;93.16;102720.09;20730728;28;20046;-74
2022/11/12 11:06:25;;;;;;;10.68;7.93;;;;;;;8.56;94.00;102702.31;20755201;28;20522;-72
2022/11/12 11:16:53;;;;;;;16.50;8.55;;;;;;;9.64;94.16;102701.72;20758158;28;20046;-73
2022/11/12 11:27:25;;;;;;;12.57;7.57;;;;;;;9.06;92.98;102677.47;20750086;28;20156;-74
2022/11/12 11:38:02;;;;;;;37.13;13.05;;;;;;;9.07;95.77;102681.78;20721776;28;20053;-71
2022/11/12 11:48:30;;;;;;;19.45;8.43;;;;;;;9.20;93.19;102677.91;20732027;28;20416;-71
2022/11/12 11:59:15;;;;;;;14.43;8.48;;;;;;;9.28;93.34;102670.75;20748346;28;20092;-69
2022/11/12 12:09:49;;;;;;;12.18;7.82;;;;;;;9.45;93.57;102670.25;20748234;28;20058;-64
2022/11/12 12:20:20;;;;;;;13.00;8.20;;;;;;;9.69;93.41;102657.31;20750090;28;20049;-66
2022/11/12 12:30:46;;;;;;;18.47;8.70;;;;;;;9.80;93.50;102634.38;20748407;28;20378;-67
2022/11/12 12:41:19;;;;;;;12.93;9.02;;;;;;;9.89;92.42;102634.09;20756103;28;20123;-63
2022/11/12 12:51:41;;;;;;;15.45;8.90;;;;;;;9.92;93.60;102634.84;20748645;28;20184;-65
2022/11/12 13:02:02;;;;;;;11.52;7.65;;;;;;;10.08;91.46;102632.59;20753155;28;20404;-69
2022/11/12 13:13:05;;;;;;;14.53;7.33;;;;;;;10.22;89.54;102622.56;20748377;28;20115;-69
2022/11/12 13:24:09;;;;;;;13.32;7.07;;;;;;;10.30;89.55;102625.75;20740014;28;20293;-70
2022/11/12 13:34:32;;;;;;;11.82;7.18;;;;;;;10.37;87.39;102624.63;20750370;28;20049;-72
2022/11/12 13:44:54;;;;;;;12.07;6.72;;;;;;;10.38;88.28;102613.28;20868312;22;20108;-67
2022/11/12 13:55:21;;;;;;;12.30;6.22;;;;;;;10.33;88.43;102620.44;20954259;28;20044;-67
2022/11/12 14:05:47;;;;;;;10.38;5.78;;;;;;;10.40;87.47;102632.34;20995828;28;20108;-68
2022/11/12 14:16:31;;;;;;;9.32;6.15;;;;;;;10.36;87.21;102628.13;20949102;28;20044;-67
2022/11/12 14:26:53;;;;;;;10.27;6.13;;;;;;;10.28;88.79;102612.75;20920001;28;20041;-68
2022/11/12 14:37:30;;;;;;;12.38;5.80;;;;;;;10.19;88.12;102612.25;20935603;28;20075;-66
2022/11/12 14:47:53;;;;;;;10.40;6.28;;;;;;;10.13;88.48;102594.22;20947982;28;20128;-66
2022/11/12 14:58:16;;;;;;;11.23;6.32;;;;;;;10.02;88.79;102588.53;20936945;28;20053;-66
2022/11/12 15:08:39;;;;;;;17.60;6.30;;;;;;;9.88;89.34;102575.94;20982893;28;20032;-66
2022/11/12 15:19:05;;;;;;;12.75;7.22;;;;;;;9.79;89.27;102583.19;20917390;28;20110;-67
2022/11/12 15:29:27;;;;;;;10.75;6.80;;;;;;;9.61;89.67;102568.16;20925757;28;20065;-67
2022/11/12 15:39:53;;;;;;;14.00;7.90;;;;;;;9.53;89.37;102583.19;20934857;28;20048;-67
2022/11/12 15:50:23;;;;;;;10.13;6.40;;;;;;;9.37;90.67;102587.19;20946347;28;20418;-68
2022/11/12 16:00:45;;;;;;;10.63;6.70;;;;;;;9.19;91.73;102582.56;20918257;28;20056;-66
2022/11/12 16:11:34;;;;;;;12.25;7.75;;;;;;;9.04;92.54;102588.22;20942813;28;20078;-66
2022/11/12 16:21:50;;;;;;;14.45;7.97;;;;;;;8.95;92.68;102572.91;20947794;28;20408;-61
2022/11/12 16:32:12;;;;;;;16.53;7.57;;;;;;;8.91;93.12;102581.69;20928293;28;20475;-68
2022/11/12 16:42:34;;;;;;;12.40;7.72;;;;;;;8.78;92.89;102569.94;20921402;28;20052;-69
2022/11/12 16:52:55;;;;;;;12.33;7.63;;;;;;;8.62;94.19;102573.88;20934666;28;20105;-68
2022/11/12 17:03:18;;;;;;;12.57;8.03;;;;;;;8.48;94.76;102576.91;20931629;28;20045;-68
2022/11/12 17:13:39;;;;;;;14.35;7.75;;;;;;;8.34;95.13;102576.44;20953137;28;20052;-68
2022/11/12 17:24:01;;;;;;;15.73;8.50;;;;;;;8.23;96.07;102548.16;21037043;28;20067;-64
2022/11/12 17:34:23;;;;;;;12.70;8.70;;;;;;;8.15;96.81;102549.25;20938687;28;20068;-63
2022/11/12 17:44:45;;;;;;;19.40;9.77;;;;;;;8.12;96.76;102544.13;20949564;28;20344;-61
2022/11/12 17:55:07;;;;;;;12.57;8.73;;;;;;;7.97;96.79;102531.56;20963218;28;20307;-61
2022/11/12 18:05:29;;;;;;;;;;;;;;;7.85;97.74;102530.13;20982584;28;20099;-61
2022/11/12 18:15:50;;;;;;;18.50;9.05;;;;;;;7.83;97.40;102521.53;21010610;28;19954;-61
2022/11/12 18:26:14;;;;;;;14.47;9.27;;;;;;;7.74;97.50;102510.53;20979176;28;20122;-61
2022/11/12 18:36:35;;;;;;;11.80;8.48;;;;;;;7.67;98.07;102496.88;20950879;28;20098;-61
2022/11/12 18:46:57;;;;;;;21.73;9.63;;;;;;;7.62;97.71;102503.06;20946479;28;20053;-61
2022/11/12 18:57:18;;;;;;;18.07;9.70;;;;;;;7.57;97.13;102507.50;20925362;28;20033;-61
2022/11/12 19:07:40;;;;;;;16.07;10.23;;;;;;;7.44;97.91;102511.31;20978254;28;20040;-60
2022/11/12 19:18:02;;;;;;;19.83;10.63;;;;;;;7.38;97.05;102506.28;20954785;28;20049;-60
2022/11/12 19:28:24;;;;;;;17.42;10.73;;;;;;;7.27;96.76;102497.06;21026405;28;20070;-61
2022/11/12 19:38:46;;;;;;;;;;;;;;;7.15;97.31;102482.66;20959001;28;20047;-61
2022/11/12 19:49:07;;;;;;;15.47;9.73;;;;;;;7.11;97.46;102490.53;20945429;28;19979;-61
2022/11/12 19:59:29;;;;;;;13.23;9.23;;;;;;;7.09;97.41;102479.34;20969429;28;20044;-60
2022/11/12 20:09:50;;;;;;;17.03;10.90;;;;;;;7.01;97.49;102479.53;20807463;23;20123;-69
2022/11/12 20:20:20;;;;;;;27.60;14.88;;;;;;;6.98;97.79;102479.63;20785279;28;20536;-70
2022/11/12 20:30:41;;;;;;;21.07;13.83;;;;;;;6.92;97.83;102484.94;20792604;28;20038;-71
2022/11/12 20:41:05;;;;;;;26.57;15.33;;;;;;;6.82;97.50;102483.47;20784798;28;20088;-70
2022/11/12 20:51:31;;;;;;;34.00;17.77;;;;;;;6.73;97.50;102478.47;20779800;28;20391;-71
2022/11/12 21:01:56;;;;;;;31.25;17.58;;;;;;;6.59;97.27;102468.44;20792045;28;20096;-71
2022/11/12 21:12:17;;;;;;;34.33;18.13;;;;;;;6.52;98.11;102456.53;20777878;28;20084;-70
2022/11/12 21:22:39;;;;;;;29.37;16.37;;;;;;;6.44;98.51;102453.22;20783396;28;20049;-72
2022/11/12 21:33:01;;;;;;;28.00;15.93;;;;;;;6.34;97.96;102457.75;20832137;28;20042;-73
2022/11/12 21:43:22;;;;;;;30.53;16.83;;;;;;;6.23;97.81;102453.72;20802823;28;20534;-71
2022/11/12 21:53:44;;;;;;;29.70;14.93;;;;;;;6.18;98.04;102435.69;20789255;28;20532;-68
2022/11/12 22:04:06;;;;;;;25.20;14.10;;;;;;;6.15;98.37;102440.06;20799964;28;20076;-69
2022/11/12 22:14:28;;;;;;;21.50;12.27;;;;;;;6.19;99.89;102431.34;20812115;28;20037;-71
2022/11/12 22:24:49;;;;;;;14.37;9.47;;;;;;;6.31;99.83;102431.09;20800231;28;20602;-68
2022/11/12 22:35:11;;;;;;;20.43;9.60;;;;;;;6.31;100.00;102425.91;20810449;28;20128;-70
2022/11/12 22:45:34;;;;;;;13.77;9.00;;;;;;;6.26;100.00;102423.41;20804837;28;20292;-71
2022/11/12 22:56:09;;;;;;;15.90;8.95;;;;;;;6.19;100.00;102413.22;20790862;28;20045;-71
2022/11/12 23:06:31;;;;;;;14.82;8.13;;;;;;;6.15;99.99;102414.16;20816572;28;20076;-72
2022/11/12 23:16:52;;;;;;;16.30;9.35;;;;;;;6.13;100.00;102421.09;20817542;28;20431;-72
2022/11/12 23:27:14;;;;;;;14.40;8.77;;;;;;;6.09;100.00;102419.50;20803622;28;20119;-72
2022/11/12 23:37:35;;;;;;;14.83;9.93;;;;;;;6.05;100.00;102417.84;20812503;28;20076;-71
2022/11/12 23:47:57;;;;;;;15.77;10.07;;;;;;;6.01;100.00;102416.19;20812994;28;20045;-71
2022/11/12 23:58:18;;;;;;;18.10;11.40;;;;;;;5.97;100.00;102419.72;20845787;28;20042;-71
